Strona główna
METAR-TAF:

METAR-TAF

Lotnisko :

Groton / New London, Connecticut, Stany Zjednoczone

Szerokość geograficzna: 41-19-39N, Długość geograficzna: 072-02-58W, wysokość: 3 m

Aktualna obserwacja pogody

Raport powstał 37 minut temu, godzina 00:56 UTC
Wiatr 9 kt od północny zachód
Temperatura -5°C
Wilgotność 38%
Ciśnienie 1027 hPa
Widzialność: 16.1 km
bezchmurnie

METAR: KGON 210056Z 32009KT 10SM CLR M05/M17 A3032 RMK AO2 SLP268 T10501172

czas: 20:33 (01:33 UTC)

Prognoza

Raport powstał 2 godziny i 9 minut temu, godzina 23:24 UTC
Prognoza ważna od 21 godzina 00 UTC do 21 godzina 24 UTC
Wiatr 8 kt od północno-północny zachód
Widzialność: 10 km
bezchmurnie
Od 21 godzina 2200 UTC
Wiatr 4 kt od północno-północny zachód
Widzialność: 10 km
bezchmurnie

TAF: KGON 202324Z 2100/2124 33008KT P6SM SKC FM212200 33004KT P6SM SKC

Obserwacja i prognoza pogody dla ponad 4000 lotnisk (raport METAR i TAF).

Dostępne stacje oznaczono żółtymi i czerwonymi punktami na mapie.

Najedź kursorem aby zobaczyć nazwę stacji.

Kliknij aby zobaczyć obserwacje i prognozy pogody.

Aby zmienić mapę: kliknij na zielony przycisk z czarnym krzyżykiem, aby powiększyć; na zielony przycisk z myślnikiem, aby pomniejszyć; na zielone strzałki, aby przejść do map sąsiednich.


METAR-TAF: